Terminal Aerodrome Forecast
Issued by NWS

Home | Current Version | Previous Version | Text Only | Print | Product List | Glossary On
Versions: 1 2 3 4 5 6 7 8 9 10 11 12 13 14 15 16 17 18
000
FTUS43 KIWX 300524
TAFSBN
TAF
KSBN 300524Z 3006/3106 09014KT P6SM SHRA SCT020 OVC080
     FM301300 09015KT 5SM SHRA BR OVC015
     FM301800 10014KT 2SM SHRA BR VCTS OVC010CB
     FM310000 11010KT 4SM SHRA BR OVC015
     FM310300 10007KT 3SM SHRA BR OVC006=

USA.gov is the U.S. government's official web portal to all federal, state and local government web resources and services.